Time;durP1;ratioP1;P1;durP2;ratioP2;P2;SDS_P1;SDS_P2;PMS_P1;PMS_P2;Temp;Humidity;BMP_temperature;BMP_pressure;BME280_temperature;BME280_humidity;BME280_pressure;Samples;Min_cycle;Max_cycle;Signal;HPM_P1;HPM_P2
2022/05/02 00:00:17;;;;;;;14.82;9.32;;;;;;;19.24;45.34;102320.78;5086282;28;20056;-55
2022/05/02 00:02:44;;;;;;;14.32;9.15;;;;;;;19.23;45.31;102319.06;5083248;28;20048;-58
2022/05/02 00:05:11;;;;;;;15.32;9.40;;;;;;;19.24;45.25;102314.56;5086130;28;20062;-55
2022/05/02 00:07:38;;;;;;;14.55;9.48;;;;;;;19.24;45.21;102317.25;5087478;28;20040;-54
2022/05/02 00:10:06;;;;;;;13.90;9.27;;;;;;;19.26;45.44;102322.47;5082707;28;20048;-56
2022/05/02 00:12:32;;;;;;;18.02;9.63;;;;;;;19.24;45.04;102319.94;5085202;28;20059;-57
2022/05/02 00:14:59;;;;;;;12.52;8.52;;;;;;;19.23;45.04;102316.38;5084033;28;20075;-55
2022/05/02 00:20:11;;;;;;;13.50;8.85;;;;;;;19.24;45.48;102318.09;5084655;28;20126;-55
2022/05/02 00:22:38;;;;;;;13.43;8.60;;;;;;;19.24;45.31;102310.03;5086213;28;20050;-57
2022/05/02 00:25:05;;;;;;;13.70;8.70;;;;;;;19.29;45.33;102314.16;5084798;28;20052;-56
2022/05/02 00:27:32;;;;;;;13.32;8.02;;;;;;;19.31;45.04;102317.59;5085218;28;20046;-56
2022/05/02 00:29:59;;;;;;;14.27;9.02;;;;;;;19.30;44.88;102316.75;5085196;28;20040;-56
2022/05/02 00:32:26;;;;;;;12.63;7.45;;;;;;;19.31;45.14;102313.06;5084361;28;20048;-57
2022/05/02 00:34:52;;;;;;;12.38;8.52;;;;;;;19.31;45.50;102312.22;5083785;28;20048;-57
2022/05/02 00:37:19;;;;;;;11.88;7.60;;;;;;;19.31;44.99;102309.53;5085474;28;20132;-56
2022/05/02 00:39:45;;;;;;;12.05;8.00;;;;;;;19.30;45.71;102305.16;5085557;28;20134;-57
2022/05/02 00:42:12;;;;;;;12.13;8.00;;;;;;;19.30;45.68;102306.00;5087725;28;20050;-56
2022/05/02 00:44:45;;;;;;;12.68;8.02;;;;;;;19.31;45.05;102296.09;5081853;28;20935;-56
2022/05/02 00:47:20;;;;;;;13.88;8.25;;;;;;;19.30;45.19;102291.69;5083934;28;20072;-56
2022/05/02 00:49:50;;;;;;;12.18;8.15;;;;;;;19.31;45.60;102296.09;5084416;28;20070;-58
2022/05/02 00:52:18;;;;;;;11.40;7.07;;;;;;;19.29;45.56;102296.19;5084866;28;20054;-56
2022/05/02 00:54:46;;;;;;;10.77;7.03;;;;;;;19.29;45.70;102293.50;5083587;28;20055;-55
2022/05/02 00:57:15;;;;;;;10.30;6.95;;;;;;;19.29;45.19;102281.91;5086205;28;20048;-57
2022/05/02 00:59:42;;;;;;;10.32;6.72;;;;;;;19.30;45.05;102289.03;5081697;28;20145;-56
2022/05/02 01:02:15;;;;;;;10.45;7.03;;;;;;;19.33;45.28;102291.44;5085741;28;20058;-57
2022/05/02 01:04:43;;;;;;;9.48;6.20;;;;;;;19.36;45.25;102289.34;5080669;28;20051;-57
2022/05/02 01:07:19;;;;;;;11.45;7.18;;;;;;;19.38;45.47;102287.41;5083786;28;20051;-57
2022/05/02 01:09:47;;;;;;;10.73;6.72;;;;;;;19.40;45.08;102273.81;5082459;28;20072;-57
2022/05/02 01:12:21;;;;;;;9.88;6.00;;;;;;;19.41;45.13;102284.44;5083761;28;20040;-56
2022/05/02 01:14:50;;;;;;;10.18;6.63;;;;;;;19.43;45.38;102281.63;5084856;28;20039;-56
2022/05/02 01:17:17;;;;;;;9.60;6.93;;;;;;;19.43;44.98;102282.47;5085406;28;20054;-57
2022/05/02 01:19:45;;;;;;;10.13;6.50;;;;;;;19.44;45.42;102286.03;5085968;28;20093;-56
2022/05/02 01:22:11;;;;;;;8.88;6.03;;;;;;;19.45;45.34;102283.19;5081373;28;20143;-57
2022/05/02 01:24:40;;;;;;;9.85;6.25;;;;;;;19.47;44.95;102283.09;5082499;28;20059;-57
2022/05/02 01:27:08;;;;;;;9.85;6.40;;;;;;;19.48;45.45;102280.25;5088632;28;20040;-57
2022/05/02 01:29:37;;;;;;;10.07;6.82;;;;;;;19.49;45.04;102281.94;5088507;28;20135;-56
2022/05/02 01:32:09;;;;;;;11.38;5.88;;;;;;;19.52;44.58;102277.31;5082506;28;20036;-53
2022/05/02 01:34:36;;;;;;;9.88;5.85;;;;;;;19.50;44.77;102280.16;5082824;28;20042;-54
2022/05/02 01:37:03;;;;;;;9.00;5.63;;;;;;;19.50;44.93;102277.47;5083296;28;20044;-55
2022/05/02 01:39:30;;;;;;;9.75;6.32;;;;;;;19.50;44.79;102277.47;5080468;28;20059;-56
2022/05/02 01:42:01;;;;;;;10.13;5.82;;;;;;;19.51;45.18;102281.00;5079855;28;20473;-56
2022/05/02 01:44:28;;;;;;;8.35;5.35;;;;;;;19.53;44.67;102277.16;5083379;28;20042;-55
2022/05/02 01:46:55;;;;;;;8.05;5.68;;;;;;;19.56;44.68;102278.75;5082295;28;20055;-55
2022/05/02 01:49:22;;;;;;;9.05;5.45;;;;;;;19.59;44.91;102278.50;5083479;28;20140;-54
2022/05/02 01:51:50;;;;;;;9.05;5.65;;;;;;;19.59;44.57;102283.91;5081945;28;20046;-55
2022/05/02 01:54:20;;;;;;;8.05;5.22;;;;;;;19.61;44.73;102268.47;5082592;28;20040;-53
2022/05/02 01:56:46;;;;;;;8.18;5.28;;;;;;;19.61;45.03;102272.03;5083424;28;20066;-52
2022/05/02 01:59:13;;;;;;;7.05;4.80;;;;;;;19.63;45.06;102269.22;5080673;28;20085;-55
2022/05/02 02:01:40;;;;;;;7.82;5.40;;;;;;;19.63;44.64;102263.84;5081662;28;20045;-52
2022/05/02 02:06:53;;;;;;;7.00;5.03;;;;;;;19.66;44.81;102261.75;5083888;28;20101;-54
2022/05/02 02:09:19;;;;;;;7.70;4.65;;;;;;;19.66;44.16;102256.38;5082579;28;20635;-55
2022/05/02 02:11:46;;;;;;;7.03;4.65;;;;;;;19.67;44.75;102254.53;5083892;28;20040;-55
2022/05/02 02:14:13;;;;;;;7.82;4.88;;;;;;;19.68;44.98;102259.78;5082883;28;20043;-54
2022/05/02 02:16:39;;;;;;;7.28;4.78;;;;;;;19.69;44.50;102256.09;5083720;28;20064;-53
2022/05/02 02:19:06;;;;;;;7.35;4.82;;;;;;;19.69;44.57;102253.41;5082835;28;20064;-54
2022/05/02 02:21:33;;;;;;;7.53;4.60;;;;;;;19.70;44.44;102254.28;5080640;28;20470;-55
2022/05/02 02:23:59;;;;;;;7.28;4.50;;;;;;;19.70;44.45;102257.84;5082613;28;20048;-55
2022/05/02 02:26:26;;;;;;;6.70;4.60;;;;;;;19.71;44.24;102250.59;5081608;28;20074;-55
2022/05/02 02:28:52;;;;;;;4.82;3.50;;;;;;;19.71;44.47;102256.84;5086080;28;20066;-54
2022/05/02 02:31:19;;;;;;;6.45;4.25;;;;;;;19.72;44.89;102255.84;5080390;28;20063;-55
2022/05/02 02:33:46;;;;;;;6.82;4.50;;;;;;;19.72;44.82;102255.00;5081696;28;21202;-55
2022/05/02 02:36:12;;;;;;;5.25;4.03;;;;;;;19.71;44.66;102256.84;5084635;28;20427;-55
2022/05/02 02:38:39;;;;;;;5.95;4.50;;;;;;;19.70;44.29;102255.13;5080794;28;20131;-56
2022/05/02 02:41:05;;;;;;;6.97;4.75;;;;;;;19.71;44.27;102251.47;5082023;28;20070;-52
2022/05/02 02:43:32;;;;;;;6.90;4.15;;;;;;;19.72;44.70;102249.63;5082306;28;20043;-54
2022/05/02 02:45:59;;;;;;;5.70;3.80;;;;;;;19.71;44.79;102246.06;5082017;28;20041;-54
2022/05/02 02:48:25;;;;;;;7.97;4.47;;;;;;;19.72;44.81;102245.09;5084594;28;20419;-55
2022/05/02 02:50:52;;;;;;;6.28;3.92;;;;;;;19.72;44.24;102239.69;5081084;28;20049;-54
2022/05/02 02:53:18;;;;;;;7.72;4.10;;;;;;;19.72;44.68;102244.22;5080909;28;20052;-52
2022/05/02 02:55:45;;;;;;;5.28;3.60;;;;;;;19.71;44.23;102240.69;5083042;28;20330;-56
2022/05/02 02:58:12;;;;;;;5.20;3.38;;;;;;;19.70;44.71;102240.84;5082449;28;20051;-54
2022/05/02 03:00:38;;;;;;;5.95;3.88;;;;;;;19.70;44.19;102241.69;5084763;28;20654;-53
2022/05/02 03:03:05;;;;;;;4.75;3.53;;;;;;;19.70;44.63;102236.31;5081410;28;20055;-53
2022/05/02 03:08:18;;;;;;;6.47;3.78;;;;;;;19.73;44.79;102241.41;5079925;28;20058;-55
2022/05/02 03:10:45;;;;;;;5.78;3.95;;;;;;;19.73;44.74;102233.34;5083123;28;20044;-55
2022/05/02 03:13:11;;;;;;;5.28;3.17;;;;;;;19.73;44.45;102229.78;5080605;28;20215;-55
2022/05/02 03:15:38;;;;;;;6.50;3.83;;;;;;;19.73;44.42;102229.78;5085441;28;20044;-55
2022/05/02 03:18:06;;;;;;;4.78;3.15;;;;;;;19.71;44.00;102227.25;5086588;28;20462;-56
2022/05/02 03:20:33;;;;;;;4.57;3.35;;;;;;;19.70;44.83;102230.94;5085024;28;20044;-53
2022/05/02 03:22:59;;;;;;;5.07;3.38;;;;;;;19.70;44.52;102222.00;5085520;28;20058;-54
2022/05/02 03:25:26;;;;;;;5.60;3.38;;;;;;;19.70;44.41;102227.41;5084807;28;20058;-53
2022/05/02 03:27:52;;;;;;;5.03;3.50;;;;;;;19.70;44.69;102224.69;5087374;28;20044;-54
2022/05/02 03:30:19;;;;;;;4.63;3.38;;;;;;;19.69;44.75;102229.19;5084532;28;21833;-55
2022/05/02 03:32:51;;;;;;;4.47;3.35;;;;;;;19.68;44.70;102229.34;5082551;28;20119;-56
2022/05/02 03:35:18;;;;;;;4.60;3.58;;;;;;;19.67;44.48;102222.25;5083565;28;20249;-52
2022/05/02 03:37:44;;;;;;;5.30;3.50;;;;;;;19.65;44.82;102217.00;5089122;28;20049;-54
2022/05/02 03:40:11;;;;;;;4.00;3.00;;;;;;;19.64;44.67;102217.13;5086551;28;20044;-55
2022/05/02 03:42:37;;;;;;;5.90;3.22;;;;;;;19.63;45.21;102218.97;5086784;28;20327;-55
2022/05/02 03:45:07;;;;;;;4.15;3.03;;;;;;;19.61;45.13;102226.31;5084482;28;20066;-54
2022/05/02 03:47:34;;;;;;;4.32;3.15;;;;;;;19.60;44.64;102224.56;5083923;28;20131;-54
2022/05/02 03:50:00;;;;;;;4.15;2.95;;;;;;;19.60;44.93;102221.03;5087700;28;20690;-56
2022/05/02 03:52:27;;;;;;;4.00;3.00;;;;;;;19.57;45.26;102221.28;5085909;28;20048;-54
2022/05/02 03:54:54;;;;;;;5.35;3.17;;;;;;;19.56;45.43;102219.59;5083543;28;20040;-57
2022/05/02 03:57:20;;;;;;;4.72;2.95;;;;;;;19.54;45.08;102221.53;5082043;28;20062;-55
2022/05/02 03:59:47;;;;;;;4.65;3.20;;;;;;;19.53;45.68;102225.22;5089260;28;20039;-55
2022/05/02 04:02:14;;;;;;;4.57;3.20;;;;;;;19.53;45.27;102219.84;5086082;28;20048;-57
2022/05/02 04:04:41;;;;;;;4.95;3.22;;;;;;;19.53;45.66;102225.22;5085839;28;20054;-56
2022/05/02 04:07:08;;;;;;;4.15;2.90;;;;;;;19.55;45.73;102228.66;5086452;28;20048;-56
2022/05/02 04:09:34;;;;;;;6.35;2.83;;;;;;;19.56;45.16;102230.34;5079776;28;20070;-54
2022/05/02 04:12:01;;;;;;;4.13;2.72;;;;;;;19.55;45.75;102229.50;5088208;28;20143;-55
2022/05/02 04:14:27;;;;;;;4.53;3.03;;;;;;;19.54;45.73;102230.50;5091509;28;20072;-56
2022/05/02 04:16:54;;;;;;;3.65;2.75;;;;;;;19.52;45.53;102235.13;5087321;28;20165;-55
2022/05/02 04:19:21;;;;;;;4.57;3.20;;;;;;;19.52;45.33;102231.59;5085177;28;20044;-55
2022/05/02 04:21:47;;;;;;;4.72;3.05;;;;;;;19.51;45.36;102232.59;5085338;28;20040;-56
2022/05/02 04:24:14;;;;;;;8.50;3.13;;;;;;;19.48;45.11;102228.31;5083171;28;20049;-55
2022/05/02 04:26:41;;;;;;;4.68;2.83;;;;;;;19.47;44.84;102240.91;5091464;28;20044;-56
2022/05/02 04:29:07;;;;;;;4.03;3.00;;;;;;;19.44;45.71;102238.47;5090401;28;20054;-55
2022/05/02 04:31:34;;;;;;;5.75;3.08;;;;;;;19.44;45.62;102237.63;5087953;28;20071;-55
2022/05/02 04:34:01;;;;;;;5.43;3.38;;;;;;;19.42;45.50;102236.91;5083772;28;20047;-56
2022/05/02 04:36:27;;;;;;;4.75;3.60;;;;;;;19.40;44.99;102242.41;5087661;28;20335;-55
2022/05/02 04:38:53;;;;;;;6.57;3.53;;;;;;;19.40;44.93;102238.84;5068798;28;20055;-56
2022/05/02 04:41:25;;;;;;;6.40;4.20;;;;;;;19.38;45.18;102239.00;5090866;28;20135;-56
2022/05/02 04:43:53;;;;;;;6.35;4.28;;;;;;;19.37;45.48;102237.28;5089183;28;20127;-54
2022/05/02 04:46:22;;;;;;;5.90;4.22;;;;;;;19.35;44.99;102238.41;5089845;28;20089;-56
2022/05/02 04:48:48;;;;;;;7.18;4.53;;;;;;;19.34;45.48;102239.38;5091424;28;20068;-56
2022/05/02 04:51:15;;;;;;;6.70;4.80;;;;;;;19.33;45.26;102237.66;5090776;28;20251;-55
2022/05/02 04:53:42;;;;;;;6.47;4.53;;;;;;;19.32;45.55;102238.66;5089270;28;20050;-56
2022/05/02 04:56:08;;;;;;;8.15;5.15;;;;;;;19.33;45.81;102248.41;5083975;28;20123;-55
2022/05/02 04:58:35;;;;;;;6.38;4.53;;;;;;;19.33;45.16;102235.81;5092181;28;20040;-56
2022/05/02 05:01:05;;;;;;;6.97;4.82;;;;;;;19.34;45.63;102236.69;5085626;28;20048;-58
2022/05/02 05:03:31;;;;;;;6.20;4.03;;;;;;;19.34;45.65;102239.38;5090737;28;20047;-54
2022/05/02 05:05:58;;;;;;;6.22;4.40;;;;;;;19.33;45.68;102241.19;5086486;28;20044;-54
2022/05/02 05:08:24;;;;;;;7.63;5.05;;;;;;;19.34;45.00;102236.69;5086046;28;20044;-55
2022/05/02 05:10:58;;;;;;;6.22;4.80;;;;;;;19.34;45.30;102239.38;5087153;28;20044;-57
2022/05/02 05:13:33;;;;;;;7.30;5.00;;;;;;;19.35;45.24;102241.09;5089914;28;20126;-56
2022/05/02 05:16:20;;;;;;;7.65;5.10;;;;;;;19.35;44.93;102241.09;5087488;28;20052;-56
2022/05/02 05:19:11;;;;;;;8.10;5.13;;;;;;;19.36;44.94;102240.09;5088076;28;20435;-57
2022/05/02 05:22:14;;;;;;;8.00;5.18;;;;;;;19.35;44.76;102239.25;5087576;28;20047;-56
2022/05/02 05:24:41;;;;;;;7.95;5.28;;;;;;;19.36;45.20;102237.41;5049897;28;20332;-56
2022/05/02 05:27:15;;;;;;;8.88;5.30;;;;;;;19.35;44.77;102243.78;5084339;28;20447;-57
2022/05/02 05:30:01;;;;;;;9.15;5.55;;;;;;;19.33;45.32;102238.50;5088731;28;20052;-56
2022/05/02 05:32:28;;;;;;;7.95;5.65;;;;;;;19.33;44.70;102240.34;5088094;28;20077;-56
2022/05/02 05:35:09;;;;;;;9.00;5.43;;;;;;;19.31;45.25;102239.63;5085720;28;20119;-56
2022/05/02 05:37:54;;;;;;;8.77;5.55;;;;;;;19.28;45.06;102238.03;5084850;28;20048;-57
2022/05/02 05:40:21;;;;;;;7.97;5.07;;;;;;;19.27;45.22;102240.88;5087129;28;20127;-56
2022/05/02 05:43:16;;;;;;;7.65;5.22;;;;;;;19.25;45.38;102240.97;5087344;28;20039;-55
2022/05/02 05:45:52;;;;;;;7.65;5.53;;;;;;;19.24;44.81;102241.97;5089551;28;20050;-56
2022/05/02 05:48:35;;;;;;;7.18;5.13;;;;;;;19.22;44.83;102242.13;5087996;28;20036;-57
2022/05/02 05:51:23;;;;;;;8.20;5.80;;;;;;;19.21;44.80;102244.91;5084969;28;20345;-56
2022/05/02 05:54:14;;;;;;;8.00;5.55;;;;;;;19.19;45.44;102247.72;5080777;28;20039;-57
2022/05/02 05:56:57;;;;;;;7.90;5.18;;;;;;;19.19;45.62;102242.34;5083520;28;20037;-56
2022/05/02 05:59:50;;;;;;;8.02;5.45;;;;;;;19.18;44.76;102247.88;5087183;28;20062;-56
2022/05/02 06:02:29;;;;;;;10.30;5.50;;;;;;;19.21;45.54;102247.59;5087945;28;20044;-55
2022/05/02 06:04:58;;;;;;;8.02;5.35;;;;;;;19.23;45.31;102251.03;5082288;28;20056;-56
2022/05/02 06:07:28;;;;;;;8.43;5.72;;;;;;;19.28;45.69;102248.81;5088087;28;20104;-55
2022/05/02 06:10:00;;;;;;;10.52;5.57;;;;;;;19.32;45.82;102252.94;5080266;28;20040;-55
2022/05/02 06:12:29;;;;;;;10.13;5.57;;;;;;;19.36;45.63;102240.09;5081996;28;20052;-56
2022/05/02 06:20:34;;;;;;;8.20;5.85;;;;;;;19.45;45.15;102248.22;5087183;28;20072;-55
2022/05/02 06:23:02;;;;;;;10.15;5.15;;;;;;;19.48;45.28;102252.50;5089535;28;20079;-54
2022/05/02 06:25:32;;;;;;;8.77;5.65;;;;;;;19.50;45.34;102250.56;5088998;28;20050;-54
2022/05/02 06:28:01;;;;;;;8.30;5.70;;;;;;;19.53;45.61;102249.44;5084582;28;20050;-55
2022/05/02 06:30:29;;;;;;;6.47;4.70;;;;;;;19.55;45.38;102248.34;5085381;28;20055;-56
2022/05/02 06:33:00;;;;;;;7.75;4.93;;;;;;;19.57;45.23;102242.81;5087120;28;20392;-55
2022/05/02 06:35:41;;;;;;;7.25;5.28;;;;;;;19.59;45.25;102248.94;5088100;28;20101;-56
2022/05/02 06:38:16;;;;;;;8.55;5.10;;;;;;;19.60;44.80;102253.31;5089125;28;20515;-55
2022/05/02 06:41:07;;;;;;;8.07;5.45;;;;;;;19.61;45.40;102247.81;5088915;28;20052;-56
2022/05/02 06:43:46;;;;;;;8.25;5.93;;;;;;;19.63;45.44;102259.31;5086780;28;20046;-55
2022/05/02 06:46:15;;;;;;;8.52;5.63;;;;;;;19.64;45.07;102255.66;5087535;28;20058;-53
2022/05/02 06:48:54;;;;;;;8.23;5.25;;;;;;;19.64;45.36;102258.34;5086479;28;20152;-53
2022/05/02 06:51:44;;;;;;;8.25;5.75;;;;;;;19.64;44.72;102257.50;5085428;28;20062;-54
2022/05/02 06:54:32;;;;;;;6.95;5.07;;;;;;;19.63;45.09;102245.88;5082306;28;20036;-56
2022/05/02 06:57:09;;;;;;;7.57;4.78;;;;;;;19.64;44.91;102244.88;5086316;28;20135;-54
2022/05/02 07:00:17;;;;;;;7.55;4.88;;;;;;;19.62;44.93;102244.19;5086418;28;20042;-55
2022/05/02 07:03:13;;;;;;;6.72;4.90;;;;;;;19.63;44.72;102240.50;5006816;28;20150;-54
2022/05/02 07:06:19;;;;;;;8.88;5.15;;;;;;;19.63;45.25;102245.88;5004653;28;20045;-53
2022/05/02 07:08:54;;;;;;;7.70;4.78;;;;;;;19.63;44.86;102243.19;5085034;28;20123;-55
2022/05/02 07:11:28;;;;;;;7.25;4.78;;;;;;;19.63;45.36;102239.66;5088680;28;20344;-55
2022/05/02 07:14:03;;;;;;;6.18;4.53;;;;;;;19.63;44.87;102243.19;5087961;28;20210;-55
2022/05/02 07:16:32;;;;;;;8.23;4.75;;;;;;;19.63;44.55;102242.34;5088742;28;20131;-54
2022/05/02 07:19:28;;;;;;;5.85;4.53;;;;;;;19.62;44.67;102241.50;5086648;28;20048;-54
2022/05/02 07:22:02;;;;;;;8.43;5.20;;;;;;;19.63;44.75;102243.19;5089142;28;20328;-55
2022/05/02 07:24:37;;;;;;;7.68;4.82;;;;;;;19.62;44.43;102246.88;5084266;28;20054;-54
2022/05/02 07:27:19;;;;;;;6.05;4.55;;;;;;;19.62;44.51;102246.03;5084533;28;20062;-54
2022/05/02 07:29:50;;;;;;;6.70;4.72;;;;;;;19.62;44.88;102241.50;5082806;28;20048;-55
2022/05/02 07:32:21;;;;;;;6.78;4.70;;;;;;;19.61;44.46;102239.75;5083193;28;20053;-55
2022/05/02 07:34:49;;;;;;;5.95;4.53;;;;;;;19.61;44.68;102245.13;5083233;28;20044;-56
2022/05/02 07:37:20;;;;;;;6.57;4.90;;;;;;;19.61;44.54;102245.13;5087257;28;20052;-53
2022/05/02 07:39:49;;;;;;;6.57;4.55;;;;;;;19.62;44.79;102251.41;5078999;28;20397;-55
2022/05/02 07:42:16;;;;;;;5.75;4.40;;;;;;;19.62;44.54;102248.72;5083940;28;20048;-53
2022/05/02 07:44:44;;;;;;;6.68;4.60;;;;;;;19.62;44.34;102246.88;5081889;28;20054;-53
2022/05/02 07:47:13;;;;;;;5.45;3.78;;;;;;;19.63;44.74;102243.19;5086319;28;20135;-55
2022/05/02 07:49:45;;;;;;;6.28;4.40;;;;;;;19.63;44.91;102251.25;5089110;28;20130;-55
2022/05/02 07:52:26;;;;;;;6.15;4.43;;;;;;;19.62;44.64;102244.19;5084003;28;20050;-56
2022/05/02 07:54:56;;;;;;;5.75;4.10;;;;;;;19.63;44.91;102253.94;5085191;28;20546;-54
2022/05/02 07:57:24;;;;;;;6.05;4.30;;;;;;;19.63;44.81;102248.56;5088120;28;20044;-54
2022/05/02 07:59:54;;;;;;;5.55;3.72;;;;;;;19.64;44.74;102255.66;5083210;28;20079;-54
2022/05/02 08:02:22;;;;;;;5.53;4.07;;;;;;;19.64;44.64;102249.41;5087332;28;20304;-55
2022/05/02 08:04:49;;;;;;;5.82;4.20;;;;;;;19.64;44.67;102249.41;5089676;28;20113;-55
2022/05/02 08:07:37;;;;;;;5.65;3.75;;;;;;;19.64;44.22;102252.09;5091112;28;20056;-55
2022/05/02 08:10:09;;;;;;;5.00;3.85;;;;;;;19.64;44.47;102250.25;5091578;28;20079;-55
2022/05/02 08:12:41;;;;;;;5.10;3.85;;;;;;;19.64;44.37;102249.41;5091365;28;20132;-55
2022/05/02 08:15:13;;;;;;;5.45;3.78;;;;;;;19.64;44.39;102252.09;5090154;28;20080;-55
2022/05/02 08:17:43;;;;;;;6.05;4.40;;;;;;;19.66;44.14;102250.16;5091555;28;20134;-54
2022/05/02 08:20:48;;;;;;;5.40;3.92;;;;;;;19.65;44.81;102251.13;5089152;28;20044;-54
2022/05/02 08:27:17;;;;;;;6.43;4.18;;;;;;;19.64;44.83;102250.25;5089251;28;20163;-55
2022/05/02 08:29:56;;;;;;;5.20;3.55;;;;;;;19.65;44.78;102246.59;5088888;28;20384;-56
2022/05/02 08:32:52;;;;;;;5.03;3.65;;;;;;;19.64;44.90;102247.56;5087022;28;20127;-57
2022/05/02 08:35:50;;;;;;;5.65;3.63;;;;;;;19.67;44.35;102249.16;5089864;28;20435;-55
2022/05/02 08:38:34;;;;;;;6.93;3.78;;;;;;;19.67;44.32;102244.63;5088960;28;20047;-56
2022/05/02 08:41:36;;;;;;;5.03;3.58;;;;;;;19.67;44.32;102250.00;5088577;28;20040;-55
2022/05/02 08:44:42;;;;;;;5.28;3.38;;;;;;;19.68;44.49;102246.34;5089720;28;20338;-56
2022/05/02 08:47:53;;;;;;;5.13;3.50;;;;;;;19.69;44.38;102247.19;5086452;28;20044;-57
2022/05/02 08:50:19;;;;;;;4.60;3.13;;;;;;;19.70;44.27;102249.75;5093189;28;20040;-56
2022/05/02 08:53:04;;;;;;;5.28;3.47;;;;;;;19.70;44.62;102241.69;5090331;28;20040;-55
2022/05/02 08:55:49;;;;;;;6.82;3.60;;;;;;;19.70;44.70;102243.53;5086333;28;20054;-56
2022/05/02 08:58:50;;;;;;;4.13;3.40;;;;;;;19.71;44.26;102239.84;5087097;28;20123;-57
2022/05/02 09:01:50;;;;;;;3.38;2.85;;;;;;;19.72;44.50;102242.41;5091593;28;20490;-56
2022/05/02 09:04:51;;;;;;;4.75;3.42;;;;;;;19.73;44.68;102237.88;5089107;28;20040;-56
2022/05/02 09:08:05;;;;;;;4.60;3.28;;;;;;;19.76;45.06;102239.44;5088599;28;20043;-55
2022/05/02 09:10:55;;;;;;;5.22;3.70;;;;;;;19.77;44.49;102225.84;5090860;28;20044;-56
2022/05/02 09:13:40;;;;;;;3.72;2.90;;;;;;;19.79;45.06;102233.81;5086509;28;20063;-56
2022/05/02 09:16:53;;;;;;;4.75;3.40;;;;;;;19.80;45.37;102233.66;5087614;28;20052;-56
2022/05/02 09:19:59;;;;;;;4.88;3.63;;;;;;;19.83;45.14;102228.03;5088361;28;20052;-56
2022/05/02 09:23:02;;;;;;;6.10;3.47;;;;;;;19.85;45.00;102226.06;4988602;28;20477;-55
2022/05/02 09:25:35;;;;;;;4.95;3.08;;;;;;;19.88;44.82;102224.94;5086123;28;20166;-55
2022/05/02 09:28:21;;;;;;;5.40;3.40;;;;;;;19.89;44.81;102224.81;5087143;28;20048;-55
2022/05/02 09:31:19;;;;;;;4.47;3.08;;;;;;;19.93;44.81;102217.31;5085667;28;20131;-54
2022/05/02 09:33:50;;;;;;;3.88;2.80;;;;;;;19.99;45.20;102218.66;5088415;28;20047;-55
2022/05/02 09:36:29;;;;;;;5.03;3.15;;;;;;;20.02;44.93;102218.34;5090431;28;20036;-56
2022/05/02 09:39:04;;;;;;;4.50;3.00;;;;;;;20.06;44.84;102226.06;5086021;28;20134;-55
2022/05/02 09:42:01;;;;;;;3.97;2.78;;;;;;;20.10;45.16;102216.72;5091202;28;20058;-55
2022/05/02 09:50:37;;;;;;;5.33;3.00;;;;;;;20.26;44.53;102218.94;5087914;28;20122;-56
2022/05/02 09:53:48;;;;;;;4.07;2.70;;;;;;;20.30;44.44;102214.09;5085284;28;20411;-57
2022/05/02 09:56:38;;;;;;;4.35;3.10;;;;;;;20.35;44.42;102211.88;5046383;28;20646;-56
2022/05/02 09:59:28;;;;;;;3.55;2.90;;;;;;;20.38;44.76;102212.47;5085891;28;20040;-56
2022/05/02 10:02:05;;;;;;;4.47;2.85;;;;;;;20.42;44.18;102210.31;5087782;28;20047;-57
2022/05/02 10:04:32;;;;;;;3.85;2.70;;;;;;;20.46;43.96;102214.44;5084787;28;20159;-56
2022/05/02 10:07:06;;;;;;;3.85;3.10;;;;;;;20.48;44.03;102207.09;5082829;28;20135;-56
2022/05/02 10:09:49;;;;;;;3.40;2.55;;;;;;;20.52;44.34;102205.88;5085854;28;20331;-57
2022/05/02 10:12:34;;;;;;;5.35;2.78;;;;;;;20.55;43.91;102208.28;5089279;28;20052;-57
2022/05/02 10:15:16;;;;;;;3.80;2.60;;;;;;;20.58;44.45;102202.66;5090185;28;20143;-56
2022/05/02 10:17:42;;;;;;;3.13;2.60;;;;;;;20.61;43.62;102207.72;5087096;28;20131;-57
2022/05/02 10:20:20;;;;;;;3.33;2.63;;;;;;;20.64;44.26;102201.22;5089509;28;20051;-57
2022/05/02 10:23:34;;;;;;;3.42;2.53;;;;;;;20.65;44.32;102211.00;5087969;28;20177;-57
2022/05/02 10:26:10;;;;;;;3.03;2.30;;;;;;;20.69;43.86;102213.28;5006344;28;20038;-57
2022/05/02 10:29:01;;;;;;;3.35;2.15;;;;;;;20.71;43.55;102194.31;5004013;28;20080;-57
2022/05/02 10:31:32;;;;;;;4.13;2.60;;;;;;;20.74;43.71;102203.94;5069330;28;20062;-57
2022/05/02 10:34:02;;;;;;;3.15;2.22;;;;;;;20.75;44.18;102197.56;5085226;28;20467;-57
2022/05/02 10:36:36;;;;;;;3.22;2.60;;;;;;;20.77;43.43;102195.59;5086509;28;20043;-58
2022/05/02 10:39:15;;;;;;;3.38;2.35;;;;;;;20.79;44.09;102194.47;5085249;28;20052;-57
2022/05/02 10:41:47;;;;;;;3.42;2.28;;;;;;;20.81;43.74;102197.00;5086518;28;20437;-57
2022/05/02 10:44:17;;;;;;;4.40;2.38;;;;;;;20.81;43.92;102192.47;5087839;28;20090;-57
2022/05/02 10:46:45;;;;;;;2.60;2.20;;;;;;;20.85;43.81;102187.66;5087022;28;20389;-56
2022/05/02 10:49:30;;;;;;;3.78;2.80;;;;;;;20.85;43.53;102179.56;5082329;28;20339;-56
2022/05/02 10:52:19;;;;;;;3.92;2.53;;;;;;;20.87;43.93;102183.00;5085251;28;20131;-57
2022/05/02 10:55:09;;;;;;;6.78;2.67;;;;;;;20.88;43.27;102180.13;5086376;28;20131;-56
2022/05/02 10:57:40;;;;;;;3.83;2.67;;;;;;;20.91;43.52;102176.31;5085682;28;20507;-56
2022/05/02 11:00:10;;;;;;;2.90;2.00;;;;;;;20.92;43.66;102178.03;5087267;28;20040;-56
2022/05/02 11:02:54;;;;;;;2.90;2.30;;;;;;;20.93;43.48;102180.56;5085814;28;20051;-55
2022/05/02 11:05:31;;;;;;;2.60;2.10;;;;;;;20.95;43.50;102177.75;5084092;28;20052;-56
2022/05/02 11:08:11;;;;;;;3.17;2.20;;;;;;;20.95;43.23;102178.59;5087635;28;20109;-56
2022/05/02 11:10:51;;;;;;;3.13;2.33;;;;;;;20.97;43.28;102178.44;5086070;28;20085;-56
2022/05/02 11:13:27;;;;;;;2.70;2.25;;;;;;;20.98;43.86;102173.91;5085328;28;20058;-56
2022/05/02 11:16:25;;;;;;;3.17;1.95;;;;;;;20.98;43.26;102177.44;5087031;28;20085;-56
2022/05/02 11:22:21;;;;;;;3.53;2.17;;;;;;;21.03;43.33;102171.66;5081197;28;20060;-57
2022/05/02 11:25:17;;;;;;;2.45;1.90;;;;;;;21.03;42.89;102174.34;5089664;28;20242;-57
2022/05/02 11:27:55;;;;;;;2.70;1.98;;;;;;;21.05;43.07;102175.03;5086548;28;20056;-57
2022/05/02 11:30:23;;;;;;;2.85;2.13;;;;;;;21.05;43.38;102164.25;5088610;28;20056;-56
2022/05/02 11:33:16;;;;;;;4.20;2.47;;;;;;;21.06;43.37;102168.66;5087131;28;20044;-56
2022/05/02 11:35:48;;;;;;;2.80;2.30;;;;;;;21.07;43.02;102163.16;5082162;28;20119;-57
2022/05/02 11:38:18;;;;;;;3.80;2.33;;;;;;;21.07;43.05;102163.16;5089919;28;20341;-56
2022/05/02 11:40:51;;;;;;;2.90;2.20;;;;;;;21.10;43.31;102164.69;5092338;28;20613;-57
2022/05/02 11:43:22;;;;;;;2.35;1.95;;;;;;;21.10;42.98;102160.13;5090418;28;20056;-57
2022/05/02 11:46:20;;;;;;;2.83;1.88;;;;;;;21.10;42.82;102154.75;5090577;28;20051;-56
2022/05/02 11:49:14;;;;;;;4.68;2.30;;;;;;;21.12;43.00;102158.16;5092470;28;20066;-56
2022/05/02 11:51:45;;;;;;;2.95;2.00;;;;;;;21.14;42.58;102164.25;5088980;28;20432;-57
2022/05/02 11:54:35;;;;;;;2.45;1.98;;;;;;;21.14;43.07;102160.72;5089351;28;20079;-55
2022/05/02 11:57:14;;;;;;;3.05;2.00;;;;;;;21.15;43.09;102160.59;5092789;28;20036;-57
2022/05/02 11:59:56;;;;;;;4.50;2.35;;;;;;;21.17;42.87;102161.28;5089855;28;20158;-57
2022/05/02 12:02:42;;;;;;;4.45;2.33;;;;;;;21.18;43.22;102156.72;5086417;28;20415;-57
2022/05/02 12:05:33;;;;;;;15.85;3.92;;;;;;;21.19;42.66;102153.91;5087984;28;20126;-57
2022/05/02 12:08:02;;;;;;;26.67;4.90;;;;;;;21.21;42.91;102151.06;5084965;28;20052;-57
2022/05/02 12:10:43;;;;;;;28.05;5.03;;;;;;;21.23;42.89;102153.59;5091327;28;20116;-57
2022/05/02 12:13:12;;;;;;;17.45;4.47;;;;;;;21.25;42.81;102160.56;5090502;28;20425;-58
2022/05/02 12:16:08;;;;;;;17.73;4.28;;;;;;;21.26;43.31;102154.16;5091762;28;20044;-58
2022/05/02 12:18:42;;;;;;;22.20;4.75;;;;;;;21.28;43.13;102154.91;5092383;28;20051;-57
2022/05/02 12:21:33;;;;;;;12.98;4.32;;;;;;;21.28;42.97;102163.00;5090555;28;20511;-57
2022/05/02 12:24:00;;;;;;;16.08;4.85;;;;;;;21.30;43.17;102149.34;5086557;28;20052;-57
2022/05/02 12:26:28;;;;;;;12.23;4.82;;;;;;;21.31;42.97;102154.63;5087841;28;20422;-57